createdAt,value
2022-08-09T00:01:43.076Z,97158.81
2022-08-09T00:04:25.093Z,97161.28
2022-08-09T00:07:10.574Z,97158.00
2022-08-09T00:09:39.330Z,97167.59
2022-08-09T00:12:08.057Z,97162.50
2022-08-09T00:14:38.450Z,97159.28
2022-08-09T00:17:08.750Z,97164.13
2022-08-09T00:19:56.786Z,97165.19
2022-08-09T00:22:25.873Z,97167.00
2022-08-09T00:25:04.038Z,97171.97
2022-08-09T00:27:42.948Z,97172.16
2022-08-09T00:30:25.267Z,97173.59
2022-08-09T00:32:55.762Z,97169.88
2022-08-09T00:35:24.621Z,97165.81
2022-08-09T00:37:53.098Z,97169.28
2022-08-09T00:40:22.091Z,97171.41
2022-08-09T00:44:10.391Z,97172.03
2022-08-09T00:45:53.731Z,97168.28
2022-08-09T00:48:23.844Z,97166.38
2022-08-09T00:50:53.716Z,97166.06
2022-08-09T00:53:23.960Z,97161.81
2022-08-09T00:56:04.669Z,97174.84
2022-08-09T00:58:35.809Z,97167.03
2022-08-09T01:01:16.500Z,97167.28
2022-08-09T01:04:13.995Z,97166.97
2022-08-09T01:06:59.583Z,97169.03
2022-08-09T01:09:35.841Z,97170.09
2022-08-09T01:12:15.303Z,97170.81
2022-08-09T01:15:01.006Z,97170.59
2022-08-09T01:17:38.872Z,97175.56
2022-08-09T01:20:11.885Z,97167.25
2022-08-09T01:24:01.153Z,97168.81
2022-08-09T01:26:11.230Z,97167.97
2022-08-09T01:28:48.902Z,97178.34
2022-08-09T01:31:40.858Z,97180.63
2022-08-09T01:34:13.906Z,97169.09
2022-08-09T01:36:46.400Z,97174.94
2022-08-09T01:39:17.892Z,97181.81
2022-08-09T01:41:55.700Z,97174.00
2022-08-09T01:44:32.391Z,97182.44
2022-08-09T01:47:03.380Z,97181.31
2022-08-09T01:49:38.782Z,97179.72
2022-08-09T01:52:14.687Z,97180.69
2022-08-09T01:54:48.615Z,97181.75
2022-08-09T01:57:21.051Z,97190.88
2022-08-09T02:00:00.248Z,97185.78
2022-08-09T02:02:46.917Z,97190.81
2022-08-09T02:05:20.305Z,97190.59
2022-08-09T02:08:39.996Z,97194.56
2022-08-09T02:11:02.754Z,97202.47
2022-08-09T02:13:55.306Z,97198.69
2022-08-09T02:16:59.912Z,97199.97
2022-08-09T02:19:38.559Z,97204.41
2022-08-09T02:22:37.942Z,97210.66
2022-08-09T02:25:17.047Z,97215.59
2022-08-09T02:28:00.177Z,97197.47
2022-08-09T02:30:37.797Z,97204.41
2022-08-09T02:33:14.194Z,97207.88
2022-08-09T02:36:01.688Z,97205.94
2022-08-09T02:38:35.497Z,97202.25
2022-08-09T02:41:10.136Z,97209.44
2022-08-09T02:43:54.956Z,97201.59
2022-08-09T02:46:28.753Z,97202.66
2022-08-09T02:49:04.137Z,97201.78
2022-08-09T02:51:40.146Z,97198.00
2022-08-09T02:54:14.020Z,97198.78
2022-08-09T02:56:51.030Z,97196.34
2022-08-09T02:59:26.303Z,97195.81
2022-08-09T03:02:12.002Z,97200.25
2022-08-09T03:04:42.948Z,97195.97
2022-08-09T03:07:14.475Z,97197.81
2022-08-09T03:09:54.059Z,97196.69
2022-08-09T03:12:25.662Z,97199.84
2022-08-09T03:14:54.773Z,97198.72
2022-08-09T03:17:26.687Z,97195.16
2022-08-09T03:20:03.222Z,97197.09
2022-08-09T03:22:41.938Z,97195.97
2022-08-09T03:25:26.460Z,97194.78
2022-08-09T03:28:04.927Z,97195.16
2022-08-09T03:30:39.664Z,97199.69
2022-08-09T03:33:17.403Z,97208.97
2022-08-09T03:36:12.430Z,97200.41
2022-08-09T03:38:42.561Z,97208.16
2022-08-09T03:41:14.621Z,97208.31
2022-08-09T03:44:03.401Z,97219.78
2022-08-09T03:46:33.772Z,97208.22
2022-08-09T03:49:08.677Z,97213.09
2022-08-09T03:51:43.692Z,97208.22
2022-08-09T03:54:32.706Z,97206.63
2022-08-09T03:57:18.747Z,97206.25
2022-08-09T03:59:54.324Z,97200.03
2022-08-09T04:02:26.647Z,97200.19
2022-08-09T04:04:57.193Z,97211.06
2022-08-09T04:07:47.709Z,97215.25
2022-08-09T04:10:20.489Z,97210.16
2022-08-09T04:12:51.664Z,97208.63
2022-08-09T04:15:38.768Z,97212.03
2022-08-09T04:18:17.928Z,97215.88
2022-08-09T04:20:47.350Z,97228.41
2022-08-09T04:23:17.836Z,97223.22
2022-08-09T04:25:51.733Z,97228.31
2022-08-09T04:28:31.345Z,97228.19
2022-08-09T04:31:07.664Z,97230.06
2022-08-09T04:33:51.452Z,97239.56
2022-08-09T04:36:27.593Z,97240.13
2022-08-09T04:38:59.481Z,97243.47
2022-08-09T04:41:32.942Z,97246.94
2022-08-09T04:44:07.176Z,97246.44
2022-08-09T04:46:58.863Z,97254.44
2022-08-09T04:49:52.574Z,97252.34
2022-08-09T04:52:26.414Z,97260.66
2022-08-09T04:54:57.452Z,97272.22
2022-08-09T04:57:58.814Z,97264.25
2022-08-09T05:00:16.686Z,97271.41
2022-08-09T05:02:48.605Z,97270.94
2022-08-09T05:05:31.912Z,97271.75
2022-08-09T05:08:08.824Z,97276.50
2022-08-09T05:10:38.210Z,97277.63
2022-08-09T05:13:06.331Z,97274.97
2022-08-09T05:15:47.656Z,97273.00
2022-08-09T05:18:38.208Z,97270.09
2022-08-09T05:21:13.321Z,97276.34
2022-08-09T05:23:57.909Z,97280.03
2022-08-09T05:26:36.519Z,97268.44
2022-08-09T05:29:17.309Z,97277.66
2022-08-09T05:31:56.328Z,97271.94
2022-08-09T05:34:30.597Z,97284.56
2022-08-09T05:37:04.893Z,97279.00
2022-08-09T05:39:36.546Z,97283.09
2022-08-09T05:42:17.259Z,97285.16
2022-08-09T05:44:51.881Z,97276.19
2022-08-09T05:47:21.667Z,97274.19
2022-08-09T05:50:24.065Z,97281.69
2022-08-09T05:52:40.181Z,97280.66
2022-08-09T05:55:21.005Z,97279.84
2022-08-09T05:57:56.837Z,97282.13
2022-08-09T06:00:28.955Z,97285.69
2022-08-09T06:02:58.074Z,97288.97
2022-08-09T06:05:31.050Z,97298.44
2022-08-09T06:08:19.743Z,97292.09
2022-08-09T06:10:55.013Z,97291.69
2022-08-09T06:13:25.429Z,97297.41
2022-08-09T06:15:56.519Z,97304.19
2022-08-09T06:18:25.910Z,97302.72
2022-08-09T06:20:57.850Z,97310.13
2022-08-09T06:23:58.570Z,97312.38
2022-08-09T06:26:20.605Z,97312.19
2022-08-09T06:29:00.892Z,97310.44
2022-08-09T06:31:39.862Z,97317.78
2022-08-09T06:34:23.022Z,97315.16
2022-08-09T06:36:59.187Z,97313.16
2022-08-09T06:39:57.402Z,97317.00
2022-08-09T06:42:19.800Z,97317.97
2022-08-09T06:44:51.850Z,97322.06
2022-08-09T06:47:22.539Z,97316.00
2022-08-09T06:50:15.003Z,97314.84
2022-08-09T06:52:45.834Z,97318.63
2022-08-09T06:55:16.501Z,97315.38
2022-08-09T06:58:03.388Z,97320.31
2022-08-09T07:00:53.980Z,97322.88
2022-08-09T07:03:28.346Z,97327.00
2022-08-09T07:06:03.948Z,97322.28
2022-08-09T07:08:37.189Z,97323.88
2022-08-09T07:11:07.028Z,97328.75
2022-08-09T07:13:45.294Z,97332.84
2022-08-09T07:16:42.832Z,97332.91
2022-08-09T07:19:15.638Z,97331.63
2022-08-09T07:21:55.555Z,97337.50
2022-08-09T07:24:32.446Z,97337.28
2022-08-09T07:27:10.936Z,97346.19
2022-08-09T07:29:56.755Z,97338.22
2022-08-09T07:32:32.051Z,97341.78
2022-08-09T07:35:10.144Z,97347.97
2022-08-09T07:37:43.444Z,97344.72
2022-08-09T07:40:17.310Z,97343.16
2022-08-09T07:42:54.901Z,97339.66
2022-08-09T07:45:37.601Z,97349.59
2022-08-09T07:48:29.652Z,97348.56
2022-08-09T07:51:09.460Z,97350.72
2022-08-09T07:54:06.976Z,97346.19
2022-08-09T07:56:38.836Z,97343.81
2022-08-09T07:59:24.937Z,97350.75
2022-08-09T08:01:55.826Z,97345.13
2022-08-09T08:04:31.749Z,97341.91
2022-08-09T08:07:15.034Z,97342.97
2022-08-09T08:09:59.767Z,97352.66
2022-08-09T08:12:37.080Z,97349.69
2022-08-09T08:15:14.208Z,97356.91
2022-08-09T08:17:55.057Z,97345.94
2022-08-09T08:20:33.183Z,97356.91
2022-08-09T08:23:15.852Z,97350.72
2022-08-09T08:25:50.369Z,97357.44
2022-08-09T08:28:35.439Z,97360.91
2022-08-09T08:31:13.947Z,97354.91
2022-08-09T08:33:52.313Z,97353.81
2022-08-09T08:36:28.713Z,97357.47
2022-08-09T08:38:58.057Z,97360.22
2022-08-09T08:41:38.705Z,97362.00
2022-08-09T08:44:15.520Z,97364.94
2022-08-09T08:46:59.494Z,97360.09
2022-08-09T08:49:38.542Z,97359.41
2022-08-09T08:52:34.981Z,97360.94
2022-08-09T08:55:05.673Z,97367.34
2022-08-09T08:57:37.624Z,97368.50
2022-08-09T09:00:17.078Z,97367.47
2022-08-09T09:02:52.534Z,97354.09
2022-08-09T09:05:59.020Z,97354.91
2022-08-09T09:08:30.031Z,97355.75
2022-08-09T09:11:04.048Z,97356.44
2022-08-09T09:13:55.326Z,97350.44
2022-08-09T09:16:32.336Z,97350.09
2022-08-09T09:19:22.579Z,97353.75
2022-08-09T09:22:05.253Z,97356.09
2022-08-09T09:24:43.221Z,97342.53
2022-08-09T09:28:04.077Z,97357.91
2022-08-09T09:30:28.747Z,97355.59
2022-08-09T09:33:16.919Z,97340.47
2022-08-09T09:36:02.884Z,97342.78
2022-08-09T09:38:48.655Z,97353.44
2022-08-09T09:41:49.502Z,97343.28
2022-08-09T09:44:27.559Z,97342.44
2022-08-09T09:47:08.551Z,97351.03
2022-08-09T09:50:07.498Z,97360.09
2022-08-09T09:52:36.748Z,97358.88
2022-08-09T09:55:27.686Z,97348.75
2022-08-09T09:58:19.048Z,97357.13
2022-08-09T10:00:53.952Z,97340.63
2022-08-09T10:03:43.429Z,97338.81
2022-08-09T10:06:13.179Z,97352.13
2022-08-09T10:08:54.774Z,97349.28
2022-08-09T10:12:00.042Z,97344.97
2022-08-09T10:14:33.231Z,97348.09
2022-08-09T10:17:38.690Z,97333.78
2022-08-09T10:20:00.602Z,97335.38
2022-08-09T10:22:34.225Z,97334.22
2022-08-09T10:25:11.230Z,97341.84
2022-08-09T10:27:45.226Z,97330.81
2022-08-09T10:34:08.940Z,97322.81
2022-08-09T10:36:09.381Z,97325.44
2022-08-09T10:38:57.110Z,97327.84
2022-08-09T10:41:28.615Z,97321.25
2022-08-09T10:43:59.786Z,97314.34
2022-08-09T10:48:14.273Z,97313.47
2022-08-09T10:50:15.711Z,97314.75
2022-08-09T10:53:10.121Z,97313.94
2022-08-09T10:55:58.477Z,97315.03
2022-08-09T10:58:33.932Z,97322.34
2022-08-09T11:03:02.437Z,97324.34
2022-08-09T11:04:29.915Z,97322.22
2022-08-09T11:07:57.464Z,97324.13
2022-08-09T11:10:59.015Z,97330.91
2022-08-09T11:13:49.981Z,97315.25
2022-08-09T11:16:37.724Z,97313.53
2022-08-09T11:19:09.707Z,97318.28
2022-08-09T11:22:10.852Z,97312.53
2022-08-09T11:25:08.939Z,97318.56
2022-08-09T11:28:02.985Z,97309.94
2022-08-09T11:30:36.077Z,97314.47
2022-08-09T11:33:07.123Z,97302.81
2022-08-09T11:35:49.079Z,97304.13
2022-08-09T11:38:32.701Z,97307.53
2022-08-09T11:41:06.176Z,97306.53
2022-08-09T11:43:44.097Z,97306.75
2022-08-09T11:46:12.410Z,97301.19
2022-08-09T11:48:52.707Z,97295.50
2022-08-09T11:53:16.261Z,97282.72
2022-08-09T11:54:27.887Z,97283.00
2022-08-09T11:57:56.874Z,97279.59
2022-08-09T12:00:28.159Z,97283.25
2022-08-09T12:02:58.176Z,97284.97
2022-08-09T12:05:42.142Z,97290.38
2022-08-09T12:08:21.489Z,97285.56
2022-08-09T12:10:55.001Z,97286.06
2022-08-09T12:14:07.726Z,97281.31
2022-08-09T12:16:37.871Z,97284.53
2022-08-09T12:19:09.546Z,97288.13
2022-08-09T12:21:50.571Z,97283.31
2022-08-09T12:24:25.001Z,97277.53
2022-08-09T12:29:11.581Z,97281.41
2022-08-09T12:30:03.990Z,97282.28
2022-08-09T12:32:48.595Z,97272.13
2022-08-09T12:35:19.183Z,97280.63
2022-08-09T12:37:52.225Z,97277.34
2022-08-09T12:40:23.150Z,97279.66
2022-08-09T12:42:55.534Z,97279.88
2022-08-09T12:45:25.216Z,97285.53
2022-08-09T12:48:04.080Z,97275.91
2022-08-09T12:50:32.512Z,97274.69
2022-08-09T12:53:09.351Z,97269.72
2022-08-09T12:56:15.442Z,97277.72
2022-08-09T12:58:42.584Z,97265.28
2022-08-09T13:01:26.591Z,97258.56
2022-08-09T13:04:01.925Z,97264.69
2022-08-09T13:06:34.725Z,97258.38
2022-08-09T13:09:09.764Z,97262.16
2022-08-09T13:11:42.515Z,97257.75
2022-08-09T13:14:47.408Z,97256.78
2022-08-09T13:17:44.123Z,97247.84
2022-08-09T13:20:14.373Z,97246.28
2022-08-09T13:23:01.345Z,97246.25
2022-08-09T13:25:42.469Z,97238.91
2022-08-09T13:28:24.558Z,97247.91
2022-08-09T13:32:17.248Z,97237.00
2022-08-09T13:34:02.744Z,97236.97
2022-08-09T13:36:40.392Z,97238.69
2022-08-09T13:41:19.070Z,97226.53
2022-08-09T13:42:02.813Z,97241.28
2022-08-09T13:44:32.361Z,97237.94
2022-08-09T13:47:29.356Z,97236.25
2022-08-09T13:49:57.146Z,97237.88
2022-08-09T13:52:30.239Z,97236.25
2022-08-09T13:55:02.101Z,97224.16
2022-08-09T13:57:39.622Z,97225.75
2022-08-09T14:00:15.573Z,97232.28
2022-08-09T14:03:02.753Z,97221.38
2022-08-09T14:05:58.557Z,97221.19
2022-08-09T14:08:28.201Z,97227.47
2022-08-09T14:10:57.048Z,97240.38
2022-08-09T14:14:14.695Z,97231.75
2022-08-09T14:16:16.792Z,97228.34
2022-08-09T14:18:51.737Z,97226.06
2022-08-09T14:21:22.531Z,97217.63
2022-08-09T14:23:56.633Z,97211.66
2022-08-09T14:26:31.729Z,97224.84
2022-08-09T14:29:03.538Z,97229.75
2022-08-09T14:31:49.850Z,97218.41
2022-08-09T14:34:27.546Z,97214.66
2022-08-09T14:37:00.538Z,97211.06
2022-08-09T14:39:45.165Z,97207.34
2022-08-09T14:42:28.950Z,97206.00
2022-08-09T14:45:00.879Z,97213.63
2022-08-09T14:47:46.281Z,97212.41
2022-08-09T14:50:18.827Z,97210.97
2022-08-09T14:52:47.773Z,97209.44
2022-08-09T14:55:20.389Z,97214.25
2022-08-09T14:57:49.403Z,97203.03
2022-08-09T15:00:18.267Z,97200.25
2022-08-09T15:02:47.478Z,97203.41
2022-08-09T15:05:21.680Z,97206.97
2022-08-09T15:07:55.972Z,97204.75
2022-08-09T15:10:25.426Z,97191.88
2022-08-09T15:12:53.888Z,97197.88
2022-08-09T15:15:23.083Z,97193.63
2022-08-09T15:17:53.270Z,97202.69
2022-08-09T15:21:55.922Z,97193.88
2022-08-09T15:24:02.198Z,97192.28
2022-08-09T15:26:00.626Z,97192.03
2022-08-09T15:28:28.848Z,97194.25
2022-08-09T15:31:10.219Z,97189.63
2022-08-09T15:34:18.007Z,97193.19
2022-08-09T15:36:33.248Z,97194.59
2022-08-09T15:39:02.003Z,97193.13
2022-08-09T15:41:31.708Z,97186.88
2022-08-09T15:44:01.742Z,97190.66
2022-08-09T15:46:34.050Z,97187.38
2022-08-09T15:49:20.584Z,97187.75
2022-08-09T15:52:05.127Z,97182.44
2022-08-09T15:54:44.790Z,97170.66
2022-08-09T15:57:19.013Z,97177.56
2022-08-09T15:59:57.614Z,97186.31
2022-08-09T16:02:27.103Z,97177.03
2022-08-09T16:04:55.651Z,97188.94
2022-08-09T16:07:25.814Z,97187.66
2022-08-09T16:10:04.344Z,97193.06
2022-08-09T16:12:33.911Z,97184.31
2022-08-09T16:15:05.556Z,97185.91
2022-08-09T16:17:53.724Z,97175.41
2022-08-09T16:20:30.158Z,97173.81
2022-08-09T16:23:01.383Z,97173.69
2022-08-09T16:25:39.683Z,97175.63
2022-08-09T16:28:12.020Z,97169.97
2022-08-09T16:30:44.723Z,97176.84
2022-08-09T16:33:27.586Z,97178.38
2022-08-09T16:36:03.047Z,97172.22
2022-08-09T16:38:35.497Z,97168.22
2022-08-09T16:41:03.926Z,97173.34
2022-08-09T16:43:32.830Z,97170.88
2022-08-09T16:46:00.868Z,97164.59
2022-08-09T16:48:39.387Z,97177.81
2022-08-09T16:51:19.019Z,97171.31
2022-08-09T16:54:16.603Z,97179.31
2022-08-09T16:56:37.822Z,97168.75
2022-08-09T16:59:17.476Z,97182.69
2022-08-09T17:01:50.728Z,97170.72
2022-08-09T17:04:26.148Z,97171.00
2022-08-09T17:08:44.167Z,97171.78
2022-08-09T17:09:47.876Z,97173.13
2022-08-09T17:12:16.938Z,97174.16
2022-08-09T17:14:46.346Z,97170.75
2022-08-09T17:17:27.016Z,97169.34
2022-08-09T17:20:32.507Z,97177.16
2022-08-09T17:22:50.411Z,97169.63
2022-08-09T17:25:23.300Z,97176.47
2022-08-09T17:27:54.415Z,97177.34
2022-08-09T17:30:25.884Z,97174.94
2022-08-09T17:33:00.732Z,97178.56
2022-08-09T17:35:41.376Z,97177.88
2022-08-09T17:38:34.295Z,97183.47
2022-08-09T17:41:02.835Z,97187.81
2022-08-09T17:43:35.781Z,97184.47
2022-08-09T17:46:09.266Z,97176.19
2022-08-09T17:48:51.777Z,97185.81
2022-08-09T17:51:21.784Z,97191.81
2022-08-09T17:53:55.065Z,97192.00
2022-08-09T17:56:29.274Z,97193.41
2022-08-09T17:59:09.014Z,97192.28
2022-08-09T18:01:58.225Z,97197.34
2022-08-09T18:04:26.479Z,97195.53
2022-08-09T18:06:55.842Z,97194.22
2022-08-09T18:09:40.356Z,97194.81
2022-08-09T18:12:16.980Z,97196.50
2022-08-09T18:14:53.648Z,97199.38
2022-08-09T18:18:01.450Z,97197.19
2022-08-09T18:20:57.915Z,97191.63
2022-08-09T18:23:05.155Z,97196.47
2022-08-09T18:25:52.972Z,97199.88
2022-08-09T18:30:39.734Z,97198.75
2022-08-09T18:31:24.685Z,97205.50
2022-08-09T18:34:00.683Z,97215.56
2022-08-09T18:36:32.352Z,97219.44
2022-08-09T18:39:06.887Z,97218.94
2022-08-09T18:41:42.210Z,97219.63
2022-08-09T18:44:23.006Z,97219.25
2022-08-09T18:47:08.048Z,97225.03
2022-08-09T18:49:41.493Z,97219.69
2022-08-09T18:52:18.733Z,97224.09
2022-08-09T18:54:55.595Z,97227.38
2022-08-09T18:57:42.841Z,97231.91
2022-08-09T19:00:16.598Z,97233.00
2022-08-09T19:02:51.169Z,97240.09
2022-08-09T19:05:41.476Z,97247.91
2022-08-09T19:08:18.340Z,97247.00
2022-08-09T19:10:47.838Z,97251.25
2022-08-09T19:13:20.448Z,97256.13
2022-08-09T19:15:55.835Z,97250.28
2022-08-09T19:18:33.036Z,97258.19
2022-08-09T19:21:03.316Z,97253.94
2022-08-09T19:24:37.438Z,97265.34
2022-08-09T19:26:29.252Z,97261.09
2022-08-09T19:29:01.773Z,97260.34
2022-08-09T19:31:45.305Z,97265.25
2022-08-09T19:34:22.226Z,97259.38
2022-08-09T19:36:52.079Z,97268.03
2022-08-09T19:39:43.539Z,97268.38
2022-08-09T19:42:08.901Z,97273.03
2022-08-09T19:44:43.187Z,97259.91
2022-08-09T19:47:12.568Z,97265.06
2022-08-09T19:50:09.906Z,97263.00
2022-08-09T19:52:29.799Z,97264.72
2022-08-09T19:54:59.044Z,97271.03
2022-08-09T19:57:27.092Z,97271.06
2022-08-09T19:59:59.354Z,97269.22
2022-08-09T20:04:11.033Z,97267.09
2022-08-09T20:05:28.594Z,97265.25
2022-08-09T20:08:09.413Z,97261.31
2022-08-09T20:10:45.899Z,97267.25
2022-08-09T20:13:20.594Z,97276.19
2022-08-09T20:16:33.028Z,97272.72
2022-08-09T20:18:39.781Z,97276.78
2022-08-09T20:21:40.674Z,97271.50
2022-08-09T20:24:29.183Z,97270.16
2022-08-09T20:27:02.064Z,97265.66
2022-08-09T20:29:37.323Z,97268.63
2022-08-09T20:32:31.175Z,97271.88
2022-08-09T20:34:57.622Z,97270.31
2022-08-09T20:38:19.471Z,97266.81
2022-08-09T20:40:19.435Z,97275.41
2022-08-09T20:43:12.076Z,97274.31
2022-08-09T20:46:00.566Z,97268.69
2022-08-09T20:48:31.844Z,97271.66
2022-08-09T20:51:03.143Z,97276.28
2022-08-09T20:53:36.587Z,97275.75
2022-08-09T20:56:20.720Z,97273.88
2022-08-09T20:58:54.653Z,97286.34
2022-08-09T21:01:34.843Z,97282.34
2022-08-09T21:05:51.899Z,97282.19
2022-08-09T21:07:11.291Z,97287.31
2022-08-09T21:09:55.676Z,97288.19
2022-08-09T21:15:15.781Z,97285.53
2022-08-09T21:18:24.061Z,97288.81
2022-08-09T21:20:35.580Z,97291.50
2022-08-09T21:23:09.208Z,97289.38
2022-08-09T21:25:57.204Z,97284.03
2022-08-09T21:28:33.383Z,97292.13
2022-08-09T21:31:17.732Z,97296.94
2022-08-09T21:33:51.429Z,97289.97
2022-08-09T21:36:23.040Z,97286.47
2022-08-09T21:38:57.675Z,97293.47
2022-08-09T21:42:04.788Z,97287.03
2022-08-09T21:44:34.138Z,97292.69
2022-08-09T21:47:05.680Z,97285.75
2022-08-09T21:49:40.560Z,97278.47
2022-08-09T21:52:15.010Z,97280.88
2022-08-09T21:54:49.590Z,97287.09
2022-08-09T21:57:39.489Z,97283.06
2022-08-09T22:00:25.886Z,97287.09
2022-08-09T22:02:59.125Z,97293.81
2022-08-09T22:05:37.703Z,97288.19
2022-08-09T22:08:13.706Z,97293.56
2022-08-09T22:11:26.442Z,97288.72
2022-08-09T22:13:34.413Z,97292.75
2022-08-09T22:16:07.608Z,97287.41
2022-08-09T22:18:38.002Z,97291.44
2022-08-09T22:21:09.973Z,97288.50
2022-08-09T22:23:59.513Z,97289.56
2022-08-09T22:26:35.049Z,97297.63
2022-08-09T22:29:08.736Z,97293.03
2022-08-09T22:31:37.175Z,97290.06
2022-08-09T22:34:12.160Z,97286.84
2022-08-09T22:36:46.101Z,97283.59
2022-08-09T22:39:38.691Z,97284.94
2022-08-09T22:42:06.055Z,97282.81
2022-08-09T22:44:44.975Z,97283.34
2022-08-09T22:48:14.264Z,97289.53
2022-08-09T22:54:57.738Z,97287.94
2022-08-09T22:57:35.492Z,97288.47
2022-08-09T23:00:06.888Z,97285.00
2022-08-09T23:02:40.177Z,97288.22
2022-08-09T23:05:13.372Z,97285.81
2022-08-09T23:08:21.132Z,97292.78
2022-08-09T23:10:50.005Z,97295.47
2022-08-09T23:13:19.351Z,97296.53
2022-08-09T23:16:02.991Z,97285.25
2022-08-09T23:18:57.011Z,97287.97
2022-08-09T23:21:30.058Z,97288.47
2022-08-09T23:24:06.530Z,97283.66
2022-08-09T23:26:35.831Z,97289.56
2022-08-09T23:29:05.861Z,97277.22
2022-08-09T23:31:34.246Z,97279.63
2022-08-09T23:34:04.019Z,97280.69
2022-08-09T23:36:32.984Z,97269.69
2022-08-09T23:39:01.669Z,97276.94
2022-08-09T23:41:29.985Z,97271.84
2022-08-09T23:43:59.960Z,97272.13
2022-08-09T23:46:30.168Z,97278.03
2022-08-09T23:48:58.893Z,97272.13
2022-08-09T23:51:28.132Z,97273.44
2022-08-09T23:54:02.717Z,97269.44
2022-08-09T23:56:39.523Z,97270.50
2022-08-09T23:59:21.018Z,97270.78
